sensor_id;sensor_type;location;lat;lon;timestamp;P1;durP1;ratioP1;P2;durP2;ratioP2
61741;SDS011;47650;49.848;9.620;2023-09-08T00:02:04;14.60;;;10.93;;
61741;SDS011;47650;49.848;9.620;2023-09-08T00:04:30;12.20;;;11.00;;
61741;SDS011;47650;49.848;9.620;2023-09-08T00:06:55;13.20;;;11.90;;
61741;SDS011;47650;49.848;9.620;2023-09-08T00:09:20;12.13;;;10.88;;
61741;SDS011;47650;49.848;9.620;2023-09-08T00:11:49;12.68;;;10.60;;
61741;SDS011;47650;49.848;9.620;2023-09-08T00:14:27;10.43;;;9.23;;
61741;SDS011;47650;49.848;9.620;2023-09-08T00:16:53;12.90;;;11.80;;
61741;SDS011;47650;49.848;9.620;2023-09-08T00:19:22;11.13;;;9.25;;
61741;SDS011;47650;49.848;9.620;2023-09-08T00:21:58;12.82;;;10.55;;
61741;SDS011;47650;49.848;9.620;2023-09-08T00:24:29;15.40;;;11.25;;
61741;SDS011;47650;49.848;9.620;2023-09-08T00:26:54;13.23;;;11.90;;
61741;SDS011;47650;49.848;9.620;2023-09-08T00:29:20;12.82;;;11.50;;
61741;SDS011;47650;49.848;9.620;2023-09-08T00:31:47;11.98;;;10.88;;
61741;SDS011;47650;49.848;9.620;2023-09-08T00:34:12;13.27;;;11.00;;
61741;SDS011;47650;49.848;9.620;2023-09-08T00:36:38;13.25;;;11.98;;
61741;SDS011;47650;49.848;9.620;2023-09-08T00:39:06;15.80;;;12.70;;
61741;SDS011;47650;49.848;9.620;2023-09-08T00:41:31;13.55;;;12.15;;
61741;SDS011;47650;49.848;9.620;2023-09-08T00:43:56;14.60;;;12.80;;
61741;SDS011;47650;49.848;9.620;2023-09-08T00:46:24;13.43;;;11.70;;
61741;SDS011;47650;49.848;9.620;2023-09-08T00:48:57;15.02;;;10.27;;
61741;SDS011;47650;49.848;9.620;2023-09-08T00:51:22;15.25;;;13.45;;
61741;SDS011;47650;49.848;9.620;2023-09-08T00:53:54;12.40;;;10.45;;
61741;SDS011;47650;49.848;9.620;2023-09-08T00:56:20;13.82;;;11.07;;
61741;SDS011;47650;49.848;9.620;2023-09-08T00:58:45;13.02;;;11.68;;
61741;SDS011;47650;49.848;9.620;2023-09-08T01:01:13;13.10;;;11.43;;
61741;SDS011;47650;49.848;9.620;2023-09-08T01:03:44;13.15;;;10.82;;
61741;SDS011;47650;49.848;9.620;2023-09-08T01:06:14;13.32;;;12.02;;
61741;SDS011;47650;49.848;9.620;2023-09-08T01:08:41;13.43;;;12.15;;
61741;SDS011;47650;49.848;9.620;2023-09-08T01:11:09;12.75;;;11.55;;
61741;SDS011;47650;49.848;9.620;2023-09-08T01:13:34;14.35;;;12.98;;
61741;SDS011;47650;49.848;9.620;2023-09-08T01:16:00;14.57;;;13.10;;
61741;SDS011;47650;49.848;9.620;2023-09-08T01:18:26;13.52;;;12.13;;
61741;SDS011;47650;49.848;9.620;2023-09-08T01:20:57;14.50;;;11.80;;
61741;SDS011;47650;49.848;9.620;2023-09-08T01:26:07;13.13;;;10.65;;
61741;SDS011;47650;49.848;9.620;2023-09-08T01:28:34;13.13;;;11.90;;
61741;SDS011;47650;49.848;9.620;2023-09-08T01:31:01;13.52;;;12.23;;
61741;SDS011;47650;49.848;9.620;2023-09-08T01:33:27;13.82;;;12.52;;
61741;SDS011;47650;49.848;9.620;2023-09-08T01:35:52;14.23;;;11.25;;
61741;SDS011;47650;49.848;9.620;2023-09-08T01:38:18;13.68;;;12.35;;
61741;SDS011;47650;49.848;9.620;2023-09-08T01:40:45;12.77;;;11.50;;
61741;SDS011;47650;49.848;9.620;2023-09-08T01:43:10;14.07;;;12.77;;
61741;SDS011;47650;49.848;9.620;2023-09-08T01:45:36;13.90;;;12.45;;
61741;SDS011;47650;49.848;9.620;2023-09-08T01:48:03;14.38;;;12.77;;
61741;SDS011;47650;49.848;9.620;2023-09-08T01:50:29;11.93;;;10.70;;
61741;SDS011;47650;49.848;9.620;2023-09-08T01:52:55;15.15;;;12.80;;
61741;SDS011;47650;49.848;9.620;2023-09-08T01:55:22;13.77;;;12.32;;
61741;SDS011;47650;49.848;9.620;2023-09-08T01:57:48;13.75;;;11.73;;
61741;SDS011;47650;49.848;9.620;2023-09-08T02:00:14;17.55;;;12.80;;
61741;SDS011;47650;49.848;9.620;2023-09-08T02:02:41;13.23;;;11.85;;
61741;SDS011;47650;49.848;9.620;2023-09-08T02:05:06;14.63;;;13.13;;
61741;SDS011;47650;49.848;9.620;2023-09-08T02:07:32;15.55;;;14.02;;
61741;SDS011;47650;49.848;9.620;2023-09-08T02:09:59;15.05;;;13.57;;
61741;SDS011;47650;49.848;9.620;2023-09-08T02:12:24;14.15;;;12.80;;
61741;SDS011;47650;49.848;9.620;2023-09-08T02:14:49;15.50;;;13.93;;
61741;SDS011;47650;49.848;9.620;2023-09-08T02:17:19;15.57;;;13.98;;
61741;SDS011;47650;49.848;9.620;2023-09-08T02:19:44;15.85;;;14.35;;
61741;SDS011;47650;49.848;9.620;2023-09-08T02:22:15;12.75;;;11.55;;
61741;SDS011;47650;49.848;9.620;2023-09-08T02:24:43;14.27;;;12.68;;
61741;SDS011;47650;49.848;9.620;2023-09-08T02:27:08;12.23;;;10.70;;
61741;SDS011;47650;49.848;9.620;2023-09-08T02:29:33;14.18;;;11.05;;
61741;SDS011;47650;49.848;9.620;2023-09-08T02:31:59;17.52;;;15.55;;
61741;SDS011;47650;49.848;9.620;2023-09-08T02:34:26;16.45;;;12.82;;
61741;SDS011;47650;49.848;9.620;2023-09-08T02:36:52;14.48;;;12.98;;
61741;SDS011;47650;49.848;9.620;2023-09-08T02:39:19;17.77;;;15.45;;
61741;SDS011;47650;49.848;9.620;2023-09-08T02:41:50;16.75;;;15.13;;
61741;SDS011;47650;49.848;9.620;2023-09-08T02:44:19;15.45;;;13.85;;
61741;SDS011;47650;49.848;9.620;2023-09-08T02:46:54;11.02;;;9.90;;
61741;SDS011;47650;49.848;9.620;2023-09-08T02:49:19;14.18;;;12.70;;
61741;SDS011;47650;49.848;9.620;2023-09-08T02:51:44;16.75;;;15.00;;
61741;SDS011;47650;49.848;9.620;2023-09-08T02:54:10;17.75;;;15.77;;
61741;SDS011;47650;49.848;9.620;2023-09-08T02:56:35;14.20;;;12.70;;
61741;SDS011;47650;49.848;9.620;2023-09-08T02:59:01;16.77;;;15.10;;
61741;SDS011;47650;49.848;9.620;2023-09-08T03:01:26;17.58;;;14.63;;
61741;SDS011;47650;49.848;9.620;2023-09-08T03:03:52;16.63;;;14.00;;
61741;SDS011;47650;49.848;9.620;2023-09-08T03:06:18;17.55;;;14.80;;
61741;SDS011;47650;49.848;9.620;2023-09-08T03:08:46;14.45;;;12.00;;
61741;SDS011;47650;49.848;9.620;2023-09-08T03:11:12;16.05;;;14.43;;
61741;SDS011;47650;49.848;9.620;2023-09-08T03:13:39;16.52;;;14.80;;
61741;SDS011;47650;49.848;9.620;2023-09-08T03:16:05;17.25;;;14.98;;
61741;SDS011;47650;49.848;9.620;2023-09-08T03:18:31;16.77;;;15.13;;
61741;SDS011;47650;49.848;9.620;2023-09-08T03:21:13;14.38;;;12.98;;
61741;SDS011;47650;49.848;9.620;2023-09-08T03:23:40;18.45;;;16.05;;
61741;SDS011;47650;49.848;9.620;2023-09-08T03:26:08;17.40;;;14.88;;
61741;SDS011;47650;49.848;9.620;2023-09-08T03:28:35;17.33;;;15.60;;
61741;SDS011;47650;49.848;9.620;2023-09-08T03:31:01;17.60;;;13.82;;
61741;SDS011;47650;49.848;9.620;2023-09-08T03:33:27;18.63;;;16.35;;
61741;SDS011;47650;49.848;9.620;2023-09-08T03:35:59;19.90;;;15.50;;
61741;SDS011;47650;49.848;9.620;2023-09-08T03:38:28;15.55;;;13.98;;
61741;SDS011;47650;49.848;9.620;2023-09-08T03:41:02;17.80;;;15.90;;
61741;SDS011;47650;49.848;9.620;2023-09-08T03:43:28;16.02;;;14.32;;
61741;SDS011;47650;49.848;9.620;2023-09-08T03:45:56;15.63;;;13.90;;
61741;SDS011;47650;49.848;9.620;2023-09-08T03:48:28;15.77;;;14.15;;
61741;SDS011;47650;49.848;9.620;2023-09-08T03:50:53;15.68;;;13.50;;
61741;SDS011;47650;49.848;9.620;2023-09-08T03:53:19;19.95;;;16.15;;
61741;SDS011;47650;49.848;9.620;2023-09-08T03:55:44;20.80;;;18.13;;
61741;SDS011;47650;49.848;9.620;2023-09-08T03:58:10;19.33;;;17.38;;
61741;SDS011;47650;49.848;9.620;2023-09-08T04:00:39;18.85;;;16.85;;
61741;SDS011;47650;49.848;9.620;2023-09-08T04:03:06;16.95;;;14.82;;
61741;SDS011;47650;49.848;9.620;2023-09-08T04:05:33;19.15;;;17.15;;
61741;SDS011;47650;49.848;9.620;2023-09-08T04:07:59;20.02;;;18.02;;
61741;SDS011;47650;49.848;9.620;2023-09-08T04:10:26;16.33;;;14.82;;
61741;SDS011;47650;49.848;9.620;2023-09-08T04:12:51;18.10;;;16.25;;
61741;SDS011;47650;49.848;9.620;2023-09-08T04:15:17;19.25;;;17.25;;
61741;SDS011;47650;49.848;9.620;2023-09-08T04:17:42;16.55;;;13.45;;
61741;SDS011;47650;49.848;9.620;2023-09-08T04:20:09;17.27;;;14.98;;
61741;SDS011;47650;49.848;9.620;2023-09-08T04:22:39;16.65;;;14.80;;
61741;SDS011;47650;49.848;9.620;2023-09-08T04:25:04;17.95;;;14.30;;
61741;SDS011;47650;49.848;9.620;2023-09-08T04:27:31;16.35;;;14.75;;
61741;SDS011;47650;49.848;9.620;2023-09-08T04:29:57;16.05;;;14.45;;
61741;SDS011;47650;49.848;9.620;2023-09-08T04:32:24;16.50;;;14.90;;
61741;SDS011;47650;49.848;9.620;2023-09-08T04:34:49;20.60;;;18.60;;
61741;SDS011;47650;49.848;9.620;2023-09-08T04:37:15;17.33;;;15.48;;
61741;SDS011;47650;49.848;9.620;2023-09-08T04:39:42;18.63;;;16.25;;
61741;SDS011;47650;49.848;9.620;2023-09-08T04:42:07;19.40;;;17.35;;
61741;SDS011;47650;49.848;9.620;2023-09-08T04:44:41;19.90;;;15.73;;
61741;SDS011;47650;49.848;9.620;2023-09-08T04:47:09;14.82;;;13.30;;
61741;SDS011;47650;49.848;9.620;2023-09-08T04:49:36;19.83;;;16.80;;
61741;SDS011;47650;49.848;9.620;2023-09-08T04:52:02;16.98;;;15.35;;
61741;SDS011;47650;49.848;9.620;2023-09-08T04:54:28;14.95;;;13.45;;
61741;SDS011;47650;49.848;9.620;2023-09-08T04:56:55;17.55;;;15.73;;
61741;SDS011;47650;49.848;9.620;2023-09-08T04:59:21;14.43;;;12.95;;
61741;SDS011;47650;49.848;9.620;2023-09-08T05:01:48;17.25;;;15.45;;
61741;SDS011;47650;49.848;9.620;2023-09-08T05:04:14;19.20;;;17.33;;
61741;SDS011;47650;49.848;9.620;2023-09-08T05:06:45;19.35;;;16.98;;
61741;SDS011;47650;49.848;9.620;2023-09-08T05:09:17;20.30;;;17.98;;
61741;SDS011;47650;49.848;9.620;2023-09-08T05:11:49;17.35;;;15.25;;
61741;SDS011;47650;49.848;9.620;2023-09-08T05:14:20;18.02;;;16.25;;
61741;SDS011;47650;49.848;9.620;2023-09-08T05:16:45;20.15;;;16.33;;
61741;SDS011;47650;49.848;9.620;2023-09-08T05:19:14;19.58;;;15.10;;
61741;SDS011;47650;49.848;9.620;2023-09-08T05:21:45;17.55;;;15.52;;
61741;SDS011;47650;49.848;9.620;2023-09-08T05:24:17;17.08;;;15.30;;
61741;SDS011;47650;49.848;9.620;2023-09-08T05:26:42;21.08;;;17.33;;
61741;SDS011;47650;49.848;9.620;2023-09-08T05:29:09;18.08;;;16.35;;
61741;SDS011;47650;49.848;9.620;2023-09-08T05:31:35;17.20;;;15.50;;
61741;SDS011;47650;49.848;9.620;2023-09-08T05:34:02;17.90;;;16.10;;
61741;SDS011;47650;49.848;9.620;2023-09-08T05:36:28;17.92;;;16.02;;
61741;SDS011;47650;49.848;9.620;2023-09-08T05:38:55;16.42;;;14.77;;
61741;SDS011;47650;49.848;9.620;2023-09-08T05:41:20;15.20;;;13.70;;
61741;SDS011;47650;49.848;9.620;2023-09-08T05:43:46;17.25;;;15.55;;
61741;SDS011;47650;49.848;9.620;2023-09-08T05:46:12;15.75;;;14.23;;
61741;SDS011;47650;49.848;9.620;2023-09-08T05:48:38;19.23;;;17.38;;
61741;SDS011;47650;49.848;9.620;2023-09-08T05:51:03;18.23;;;16.35;;
61741;SDS011;47650;49.848;9.620;2023-09-08T05:53:30;16.52;;;14.93;;
61741;SDS011;47650;49.848;9.620;2023-09-08T05:55:56;16.98;;;15.18;;
61741;SDS011;47650;49.848;9.620;2023-09-08T05:58:25;16.10;;;14.43;;
61741;SDS011;47650;49.848;9.620;2023-09-08T06:00:53;15.60;;;14.10;;
61741;SDS011;47650;49.848;9.620;2023-09-08T06:03:21;14.25;;;12.85;;
61741;SDS011;47650;49.848;9.620;2023-09-08T06:05:51;13.25;;;12.05;;
61741;SDS011;47650;49.848;9.620;2023-09-08T06:08:16;12.18;;;10.90;;
61741;SDS011;47650;49.848;9.620;2023-09-08T06:10:47;13.93;;;12.52;;
61741;SDS011;47650;49.848;9.620;2023-09-08T06:13:19;13.20;;;11.90;;
61741;SDS011;47650;49.848;9.620;2023-09-08T06:15:52;14.65;;;13.25;;
61741;SDS011;47650;49.848;9.620;2023-09-08T06:18:17;15.82;;;14.27;;
61741;SDS011;47650;49.848;9.620;2023-09-08T06:20:43;16.00;;;14.55;;
61741;SDS011;47650;49.848;9.620;2023-09-08T06:23:12;14.10;;;12.70;;
61741;SDS011;47650;49.848;9.620;2023-09-08T06:25:39;13.23;;;11.85;;
61741;SDS011;47650;49.848;9.620;2023-09-08T06:28:06;13.77;;;11.93;;
61741;SDS011;47650;49.848;9.620;2023-09-08T06:30:31;11.63;;;10.48;;
61741;SDS011;47650;49.848;9.620;2023-09-08T06:32:57;11.60;;;10.48;;
61741;SDS011;47650;49.848;9.620;2023-09-08T06:35:22;15.15;;;13.48;;
61741;SDS011;47650;49.848;9.620;2023-09-08T06:37:49;16.98;;;15.35;;
61741;SDS011;47650;49.848;9.620;2023-09-08T06:40:14;14.05;;;12.68;;
61741;SDS011;47650;49.848;9.620;2023-09-08T06:42:39;12.43;;;11.13;;
61741;SDS011;47650;49.848;9.620;2023-09-08T06:45:06;13.95;;;9.98;;
61741;SDS011;47650;49.848;9.620;2023-09-08T06:47:33;13.48;;;12.07;;
61741;SDS011;47650;49.848;9.620;2023-09-08T06:50:03;11.13;;;9.38;;
61741;SDS011;47650;49.848;9.620;2023-09-08T06:52:30;9.55;;;8.52;;
61741;SDS011;47650;49.848;9.620;2023-09-08T06:54:55;13.80;;;9.30;;
61741;SDS011;47650;49.848;9.620;2023-09-08T06:57:20;14.32;;;7.63;;
61741;SDS011;47650;49.848;9.620;2023-09-08T06:59:47;10.23;;;8.05;;
61741;SDS011;47650;49.848;9.620;2023-09-08T07:02:12;12.13;;;7.40;;
61741;SDS011;47650;49.848;9.620;2023-09-08T07:04:37;9.55;;;7.32;;
61741;SDS011;47650;49.848;9.620;2023-09-08T07:07:04;8.85;;;7.22;;
61741;SDS011;47650;49.848;9.620;2023-09-08T07:09:32;8.05;;;6.65;;
61741;SDS011;47650;49.848;9.620;2023-09-08T07:11:58;13.35;;;8.10;;
61741;SDS011;47650;49.848;9.620;2023-09-08T07:14:24;11.77;;;7.57;;
61741;SDS011;47650;49.848;9.620;2023-09-08T07:16:50;9.68;;;7.28;;
61741;SDS011;47650;49.848;9.620;2023-09-08T07:19:18;11.15;;;6.63;;
61741;SDS011;47650;49.848;9.620;2023-09-08T07:21:43;9.32;;;6.80;;
61741;SDS011;47650;49.848;9.620;2023-09-08T07:24:10;9.50;;;6.78;;
61741;SDS011;47650;49.848;9.620;2023-09-08T07:26:38;11.38;;;6.28;;
61741;SDS011;47650;49.848;9.620;2023-09-08T07:29:04;8.32;;;6.75;;
61741;SDS011;47650;49.848;9.620;2023-09-08T07:31:29;8.00;;;6.35;;
61741;SDS011;47650;49.848;9.620;2023-09-08T07:33:54;9.50;;;6.15;;
61741;SDS011;47650;49.848;9.620;2023-09-08T07:36:20;10.77;;;6.47;;
61741;SDS011;47650;49.848;9.620;2023-09-08T07:38:45;8.50;;;5.78;;
61741;SDS011;47650;49.848;9.620;2023-09-08T07:41:10;7.85;;;5.90;;
61741;SDS011;47650;49.848;9.620;2023-09-08T07:43:36;8.98;;;6.22;;
61741;SDS011;47650;49.848;9.620;2023-09-08T07:46:05;8.80;;;6.03;;
61741;SDS011;47650;49.848;9.620;2023-09-08T07:48:30;9.82;;;4.85;;
61741;SDS011;47650;49.848;9.620;2023-09-08T07:50:56;6.90;;;5.18;;
61741;SDS011;47650;49.848;9.620;2023-09-08T07:53:24;9.05;;;6.57;;
61741;SDS011;47650;49.848;9.620;2023-09-08T07:55:49;6.15;;;5.20;;
61741;SDS011;47650;49.848;9.620;2023-09-08T07:58:15;11.05;;;6.35;;
61741;SDS011;47650;49.848;9.620;2023-09-08T08:00:40;9.38;;;5.40;;
61741;SDS011;47650;49.848;9.620;2023-09-08T08:03:05;7.60;;;5.35;;
61741;SDS011;47650;49.848;9.620;2023-09-08T08:05:31;7.22;;;5.30;;
61741;SDS011;47650;49.848;9.620;2023-09-08T08:07:56;8.70;;;5.80;;
61741;SDS011;47650;49.848;9.620;2023-09-08T08:10:23;7.70;;;6.35;;
61741;SDS011;47650;49.848;9.620;2023-09-08T08:12:48;9.38;;;6.53;;
61741;SDS011;47650;49.848;9.620;2023-09-08T08:15:14;7.35;;;6.13;;
61741;SDS011;47650;49.848;9.620;2023-09-08T08:17:39;9.35;;;6.55;;
61741;SDS011;47650;49.848;9.620;2023-09-08T08:20:05;8.07;;;6.07;;
61741;SDS011;47650;49.848;9.620;2023-09-08T08:22:33;9.30;;;6.53;;
61741;SDS011;47650;49.848;9.620;2023-09-08T08:25:00;9.73;;;5.65;;
61741;SDS011;47650;49.848;9.620;2023-09-08T08:27:26;9.80;;;6.25;;
61741;SDS011;47650;49.848;9.620;2023-09-08T08:29:51;8.30;;;5.95;;
61741;SDS011;47650;49.848;9.620;2023-09-08T08:32:17;12.15;;;6.47;;
61741;SDS011;47650;49.848;9.620;2023-09-08T08:34:42;8.73;;;6.40;;
61741;SDS011;47650;49.848;9.620;2023-09-08T08:37:09;8.18;;;6.25;;
61741;SDS011;47650;49.848;9.620;2023-09-08T08:39:35;9.33;;;5.63;;
61741;SDS011;47650;49.848;9.620;2023-09-08T08:42:06;6.82;;;6.18;;
61741;SDS011;47650;49.848;9.620;2023-09-08T08:44:34;8.13;;;7.18;;
61741;SDS011;47650;49.848;9.620;2023-09-08T08:47:00;7.45;;;6.80;;
61741;SDS011;47650;49.848;9.620;2023-09-08T08:49:28;7.72;;;6.85;;
61741;SDS011;47650;49.848;9.620;2023-09-08T08:51:56;10.43;;;9.70;;
61741;SDS011;47650;49.848;9.620;2023-09-08T08:54:23;8.90;;;8.13;;
61741;SDS011;47650;49.848;9.620;2023-09-08T08:56:49;9.38;;;8.57;;
61741;SDS011;47650;49.848;9.620;2023-09-08T08:59:15;10.70;;;9.90;;
61741;SDS011;47650;49.848;9.620;2023-09-08T09:01:42;8.55;;;7.97;;
61741;SDS011;47650;49.848;9.620;2023-09-08T09:04:10;9.80;;;9.02;;
61741;SDS011;47650;49.848;9.620;2023-09-08T09:06:36;11.27;;;10.32;;
61741;SDS011;47650;49.848;9.620;2023-09-08T09:09:01;12.23;;;11.43;;
61741;SDS011;47650;49.848;9.620;2023-09-08T09:11:29;12.82;;;11.80;;
61741;SDS011;47650;49.848;9.620;2023-09-08T09:13:56;9.68;;;8.80;;
61741;SDS011;47650;49.848;9.620;2023-09-08T09:16:21;18.17;;;17.20;;
61741;SDS011;47650;49.848;9.620;2023-09-08T09:18:54;12.02;;;11.25;;
61741;SDS011;47650;49.848;9.620;2023-09-08T09:21:47;9.60;;;8.80;;
61741;SDS011;47650;49.848;9.620;2023-09-08T09:24:16;9.10;;;8.30;;
61741;SDS011;47650;49.848;9.620;2023-09-08T09:26:43;7.53;;;6.93;;
61741;SDS011;47650;49.848;9.620;2023-09-08T09:29:12;7.93;;;7.05;;
61741;SDS011;47650;49.848;9.620;2023-09-08T09:31:46;7.47;;;6.80;;
61741;SDS011;47650;49.848;9.620;2023-09-08T09:34:18;9.48;;;8.82;;
61741;SDS011;47650;49.848;9.620;2023-09-08T09:36:45;7.60;;;7.03;;
61741;SDS011;47650;49.848;9.620;2023-09-08T09:39:15;11.30;;;7.13;;
61741;SDS011;47650;49.848;9.620;2023-09-08T09:41:41;6.22;;;5.68;;
61741;SDS011;47650;49.848;9.620;2023-09-08T09:44:08;6.20;;;5.70;;
61741;SDS011;47650;49.848;9.620;2023-09-08T09:46:34;7.15;;;6.55;;
61741;SDS011;47650;49.848;9.620;2023-09-08T09:48:59;7.10;;;6.10;;
61741;SDS011;47650;49.848;9.620;2023-09-08T09:51:26;8.05;;;7.20;;
61741;SDS011;47650;49.848;9.620;2023-09-08T09:53:54;7.35;;;6.65;;
61741;SDS011;47650;49.848;9.620;2023-09-08T09:56:23;7.05;;;6.32;;
61741;SDS011;47650;49.848;9.620;2023-09-08T09:58:49;6.95;;;5.93;;
61741;SDS011;47650;49.848;9.620;2023-09-08T10:01:18;8.55;;;5.85;;
61741;SDS011;47650;49.848;9.620;2023-09-08T10:03:44;6.13;;;5.65;;
61741;SDS011;47650;49.848;9.620;2023-09-08T10:06:11;6.97;;;5.70;;
61741;SDS011;47650;49.848;9.620;2023-09-08T10:08:37;6.38;;;5.47;;
61741;SDS011;47650;49.848;9.620;2023-09-08T10:11:05;6.03;;;5.53;;
61741;SDS011;47650;49.848;9.620;2023-09-08T10:13:37;6.25;;;5.35;;
61741;SDS011;47650;49.848;9.620;2023-09-08T10:16:13;7.90;;;6.30;;
61741;SDS011;47650;49.848;9.620;2023-09-08T10:18:41;6.43;;;5.82;;
61741;SDS011;47650;49.848;9.620;2023-09-08T10:21:12;7.15;;;6.45;;
61741;SDS011;47650;49.848;9.620;2023-09-08T10:23:44;9.27;;;5.45;;
61741;SDS011;47650;49.848;9.620;2023-09-08T10:26:18;7.85;;;6.22;;
61741;SDS011;47650;49.848;9.620;2023-09-08T10:28:51;7.20;;;6.10;;
61741;SDS011;47650;49.848;9.620;2023-09-08T10:31:28;8.20;;;5.68;;
61741;SDS011;47650;49.848;9.620;2023-09-08T10:33:56;8.80;;;5.60;;
61741;SDS011;47650;49.848;9.620;2023-09-08T10:36:23;8.00;;;7.28;;
61741;SDS011;47650;49.848;9.620;2023-09-08T10:38:50;6.38;;;5.72;;
61741;SDS011;47650;49.848;9.620;2023-09-08T10:41:25;7.25;;;6.60;;
61741;SDS011;47650;49.848;9.620;2023-09-08T10:44:06;6.53;;;5.80;;
61741;SDS011;47650;49.848;9.620;2023-09-08T10:46:32;6.15;;;5.55;;
61741;SDS011;47650;49.848;9.620;2023-09-08T10:49:02;7.63;;;6.10;;
61741;SDS011;47650;49.848;9.620;2023-09-08T10:51:29;6.13;;;5.53;;
61741;SDS011;47650;49.848;9.620;2023-09-08T10:54:02;8.10;;;5.40;;
61741;SDS011;47650;49.848;9.620;2023-09-08T10:59:28;5.95;;;4.97;;
61741;SDS011;47650;49.848;9.620;2023-09-08T11:01:54;5.43;;;4.93;;
61741;SDS011;47650;49.848;9.620;2023-09-08T11:04:20;4.88;;;4.47;;
61741;SDS011;47650;49.848;9.620;2023-09-08T11:06:49;6.32;;;4.60;;
61741;SDS011;47650;49.848;9.620;2023-09-08T11:09:15;5.47;;;4.78;;
61741;SDS011;47650;49.848;9.620;2023-09-08T11:11:42;4.25;;;3.92;;
61741;SDS011;47650;49.848;9.620;2023-09-08T11:14:07;6.20;;;4.32;;
61741;SDS011;47650;49.848;9.620;2023-09-08T11:16:33;5.35;;;4.43;;
61741;SDS011;47650;49.848;9.620;2023-09-08T11:19:00;6.65;;;4.65;;
61741;SDS011;47650;49.848;9.620;2023-09-08T11:21:29;6.82;;;5.13;;
61741;SDS011;47650;49.848;9.620;2023-09-08T11:24:00;5.03;;;4.50;;
61741;SDS011;47650;49.848;9.620;2023-09-08T11:26:27;5.70;;;4.78;;
61741;SDS011;47650;49.848;9.620;2023-09-08T11:28:56;7.63;;;4.40;;
61741;SDS011;47650;49.848;9.620;2023-09-08T11:31:22;7.15;;;4.88;;
61741;SDS011;47650;49.848;9.620;2023-09-08T11:33:54;6.63;;;4.72;;
61741;SDS011;47650;49.848;9.620;2023-09-08T11:36:21;5.05;;;4.65;;
61741;SDS011;47650;49.848;9.620;2023-09-08T11:38:47;5.82;;;4.93;;
61741;SDS011;47650;49.848;9.620;2023-09-08T11:41:12;5.43;;;4.90;;
61741;SDS011;47650;49.848;9.620;2023-09-08T11:43:39;5.18;;;4.68;;
61741;SDS011;47650;49.848;9.620;2023-09-08T11:46:06;8.30;;;4.80;;
61741;SDS011;47650;49.848;9.620;2023-09-08T11:48:33;5.00;;;4.60;;
61741;SDS011;47650;49.848;9.620;2023-09-08T11:50:59;6.43;;;5.50;;
61741;SDS011;47650;49.848;9.620;2023-09-08T11:53:27;7.22;;;5.05;;
61741;SDS011;47650;49.848;9.620;2023-09-08T11:55:53;5.35;;;4.95;;
61741;SDS011;47650;49.848;9.620;2023-09-08T11:58:18;7.50;;;6.20;;
61741;SDS011;47650;49.848;9.620;2023-09-08T12:00:52;5.90;;;5.40;;
61741;SDS011;47650;49.848;9.620;2023-09-08T12:03:17;6.10;;;5.50;;
61741;SDS011;47650;49.848;9.620;2023-09-08T12:05:50;6.30;;;5.70;;
61741;SDS011;47650;49.848;9.620;2023-09-08T12:08:24;7.50;;;6.03;;
61741;SDS011;47650;49.848;9.620;2023-09-08T12:10:53;6.03;;;5.47;;
61741;SDS011;47650;49.848;9.620;2023-09-08T12:13:22;6.40;;;5.90;;
61741;SDS011;47650;49.848;9.620;2023-09-08T12:15:51;6.78;;;6.07;;
61741;SDS011;47650;49.848;9.620;2023-09-08T12:18:17;6.80;;;6.32;;
61741;SDS011;47650;49.848;9.620;2023-09-08T12:20:43;7.30;;;6.60;;
61741;SDS011;47650;49.848;9.620;2023-09-08T12:23:27;6.63;;;6.13;;
61741;SDS011;47650;49.848;9.620;2023-09-08T12:25:53;6.80;;;6.28;;
61741;SDS011;47650;49.848;9.620;2023-09-08T12:28:24;7.00;;;6.40;;
61741;SDS011;47650;49.848;9.620;2023-09-08T12:30:58;7.03;;;6.43;;
61741;SDS011;47650;49.848;9.620;2023-09-08T12:33:31;7.28;;;6.57;;
61741;SDS011;47650;49.848;9.620;2023-09-08T12:35:56;7.13;;;5.85;;
61741;SDS011;47650;49.848;9.620;2023-09-08T12:38:21;6.72;;;5.70;;
61741;SDS011;47650;49.848;9.620;2023-09-08T12:40:48;6.57;;;5.72;;
61741;SDS011;47650;49.848;9.620;2023-09-08T12:43:13;7.72;;;6.50;;
61741;SDS011;47650;49.848;9.620;2023-09-08T12:45:46;12.70;;;7.80;;
61741;SDS011;47650;49.848;9.620;2023-09-08T12:48:12;7.65;;;7.05;;
61741;SDS011;47650;49.848;9.620;2023-09-08T12:50:40;7.80;;;7.20;;
61741;SDS011;47650;49.848;9.620;2023-09-08T12:53:06;7.70;;;6.97;;
61741;SDS011;47650;49.848;9.620;2023-09-08T12:55:31;7.87;;;7.37;;
61741;SDS011;47650;49.848;9.620;2023-09-08T12:57:56;8.30;;;7.60;;
61741;SDS011;47650;49.848;9.620;2023-09-08T13:00:22;8.40;;;7.55;;
61741;SDS011;47650;49.848;9.620;2023-09-08T13:02:48;6.85;;;6.40;;
61741;SDS011;47650;49.848;9.620;2023-09-08T13:05:17;8.90;;;6.35;;
61741;SDS011;47650;49.848;9.620;2023-09-08T13:07:44;6.90;;;6.30;;
61741;SDS011;47650;49.848;9.620;2023-09-08T13:10:11;7.28;;;6.60;;
61741;SDS011;47650;49.848;9.620;2023-09-08T13:12:36;7.10;;;6.53;;
61741;SDS011;47650;49.848;9.620;2023-09-08T13:15:03;9.43;;;8.73;;
61741;SDS011;47650;49.848;9.620;2023-09-08T13:17:30;8.43;;;7.82;;
61741;SDS011;47650;49.848;9.620;2023-09-08T13:19:57;8.32;;;7.80;;
61741;SDS011;47650;49.848;9.620;2023-09-08T13:22:24;9.05;;;8.32;;
61741;SDS011;47650;49.848;9.620;2023-09-08T13:24:49;9.15;;;8.45;;
61741;SDS011;47650;49.848;9.620;2023-09-08T13:27:21;9.60;;;8.80;;
61741;SDS011;47650;49.848;9.620;2023-09-08T13:29:47;9.38;;;8.52;;
61741;SDS011;47650;49.848;9.620;2023-09-08T13:32:13;9.55;;;8.75;;
61741;SDS011;47650;49.848;9.620;2023-09-08T13:34:38;9.80;;;9.10;;
61741;SDS011;47650;49.848;9.620;2023-09-08T13:37:09;10.10;;;9.30;;
61741;SDS011;47650;49.848;9.620;2023-09-08T13:39:36;9.48;;;8.73;;
61741;SDS011;47650;49.848;9.620;2023-09-08T13:42:02;9.02;;;8.40;;
61741;SDS011;47650;49.848;9.620;2023-09-08T13:44:28;9.10;;;8.40;;
61741;SDS011;47650;49.848;9.620;2023-09-08T13:46:55;8.10;;;7.37;;
61741;SDS011;47650;49.848;9.620;2023-09-08T13:49:21;7.22;;;6.65;;
61741;SDS011;47650;49.848;9.620;2023-09-08T13:51:47;6.40;;;5.95;;
61741;SDS011;47650;49.848;9.620;2023-09-08T13:54:14;7.05;;;6.40;;
61741;SDS011;47650;49.848;9.620;2023-09-08T13:56:41;6.97;;;6.25;;
61741;SDS011;47650;49.848;9.620;2023-09-08T13:59:07;6.78;;;6.38;;
61741;SDS011;47650;49.848;9.620;2023-09-08T14:01:34;7.45;;;6.88;;
61741;SDS011;47650;49.848;9.620;2023-09-08T14:04:04;6.93;;;6.53;;
61741;SDS011;47650;49.848;9.620;2023-09-08T14:06:32;6.45;;;5.85;;
61741;SDS011;47650;49.848;9.620;2023-09-08T14:09:00;7.35;;;6.70;;
61741;SDS011;47650;49.848;9.620;2023-09-08T14:11:29;7.22;;;6.70;;
61741;SDS011;47650;49.848;9.620;2023-09-08T14:13:57;6.93;;;6.40;;
61741;SDS011;47650;49.848;9.620;2023-09-08T14:16:24;7.70;;;7.00;;
61741;SDS011;47650;49.848;9.620;2023-09-08T14:18:55;6.60;;;6.10;;
61741;SDS011;47650;49.848;9.620;2023-09-08T14:21:22;7.07;;;6.50;;
61741;SDS011;47650;49.848;9.620;2023-09-08T14:23:47;10.32;;;5.93;;
61741;SDS011;47650;49.848;9.620;2023-09-08T14:26:12;6.87;;;5.83;;
61741;SDS011;47650;49.848;9.620;2023-09-08T14:28:39;6.07;;;5.47;;
61741;SDS011;47650;49.848;9.620;2023-09-08T14:31:04;5.00;;;4.70;;
61741;SDS011;47650;49.848;9.620;2023-09-08T14:33:32;5.25;;;4.85;;
61741;SDS011;47650;49.848;9.620;2023-09-08T14:36:00;4.47;;;4.07;;
61741;SDS011;47650;49.848;9.620;2023-09-08T14:38:25;4.78;;;3.70;;
61741;SDS011;47650;49.848;9.620;2023-09-08T14:40:54;6.55;;;3.58;;
61741;SDS011;47650;49.848;9.620;2023-09-08T14:43:20;5.05;;;3.58;;